Villa Taina, Puerto Rico
Current Conditions -  °F | °C
As of 10:50 PM on Sunday 23 Nov 2014 (Local Time) from TJBQ Reporting Station
Clear Clear  
Wind Chill: 75°   Ceiling: Unl
Heat Index: 75°   Visibility: 10mi
Dew Point: 70°   Wind: 6mph
Humidity: 83%   Direction: 110°ESE
Pressure: 30.05"   Gusts: NA
Location:  18.0265°N, 67.1727°W
Report Text: TJBQ 240250Z 11005KT 10SM SKC 24/21 A3005 RMK RWY 08 ATIS U
Loading
Personal Weather Stations






























Interactive Weather Map New forecast layout! Learn more

10-Day Weather Forecast

Advertisements
Track Severe Weather on mobile